CheckWX is a tool to help pilots better visualize weather data.  It is not intended as a substitute for an official pre-flight weather briefing.

00:07:48 UTC

KSWF TAF
Stewart International Airport
New York, New York, USA
KSWF 222332Z 2300/2406 13010KT 2SM -RA BR OVC004 TEMPO 2303/2307 13006KT 1SM BR OVC003 FM230700 29008KT 4SM -RA BR OVC006 FM230900 30010KT 5SM BR BKN025 OVC035 FM231200 29012G17KT P6SM SCT025 SCT250 FM231500 29015G23KT P6SM FEW250 FM232200 27009KT P6SM SKC

Oct-23@
00:00 UTC

Oct-23 @ 00:00 UTC

Oct-23@
07:00 UTC

Oct-23 @ 07:00 UTC

KSWF 222332Z 2300/2406 13010KT 2SM -RA BR OVC004
Wind
  • 130° at 10 KTS
Conditions
Light Rain, Mist
Cloud Levels
  • Overcast at 400' AGL

Oct-23@
03:00 UTC

Oct-23 @ 03:00 UTC

Oct-23@
07:00 UTC

Oct-23 @ 07:00 UTC

TEMPO 2303/2307 13006KT 1SM BR OVC003

Temporary

Temporary Changes expected for less than half the time period

Wind
  • 130° at 6 KTS
Conditions
Mist
Cloud Levels
  • Overcast at 300' AGL

Oct-23@
07:00 UTC

Oct-23 @ 07:00 UTC

Oct-23@
09:00 UTC

Oct-23 @ 09:00 UTC

FM230700 29008KT 4SM -RA BR OVC006

From

From Standard forecast or significant change

Wind
  • 290° at 8 KTS
Conditions
Light Rain, Mist
Cloud Levels
  • Overcast at 600' AGL

Oct-23@
09:00 UTC

Oct-23 @ 09:00 UTC

Oct-23@
12:00 UTC

Oct-23 @ 12:00 UTC

FM230900 30010KT 5SM BR BKN025 OVC035

From

From Standard forecast or significant change

Wind
  • 300° at 10 KTS
Conditions
Mist
Cloud Levels
  • Broken at 2,500' AGL
  • Overcast at 3,500' AGL

Oct-23@
12:00 UTC

Oct-23 @ 12:00 UTC

Oct-23@
15:00 UTC

Oct-23 @ 15:00 UTC

FM231200 29012G17KT P6SM SCT025 SCT250

From

From Standard forecast or significant change

Wind
  • 290° at 12 KTS
  • {Gusting to 17 KTS
Cloud Levels
  • Scattered at 2,500' AGL
  • Scattered at 25,000' AGL

Oct-23@
15:00 UTC

Oct-23 @ 15:00 UTC

Oct-23@
22:00 UTC

Oct-23 @ 22:00 UTC

FM231500 29015G23KT P6SM FEW250

From

From Standard forecast or significant change

Wind
  • 290° at 15 KTS
  • {Gusting to 23 KTS
Cloud Levels
  • Few at 25,000' AGL

Oct-23@
22:00 UTC

Oct-23 @ 22:00 UTC

Oct-24@
06:00 UTC

Oct-24 @ 06:00 UTC

FM232200 27009KT P6SM SKC

From

From Standard forecast or significant change

Wind
  • 270° at 9 KTS
Cloud Levels
  • Clear skies